sensor_id;sensor_type;location;lat;lon;timestamp;temperature;humidity
44990;DHT22;30723;51.206;3.326;2022-09-09T00:02:05;15.90;99.90
44990;DHT22;30723;51.206;3.326;2022-09-09T00:04:36;15.90;99.90
44990;DHT22;30723;51.206;3.326;2022-09-09T00:07:25;15.80;99.90
44990;DHT22;30723;51.206;3.326;2022-09-09T00:23:31;15.90;99.90
44990;DHT22;30723;51.206;3.326;2022-09-09T00:28:48;15.80;99.90
44990;DHT22;30723;51.206;3.326;2022-09-09T00:31:24;15.80;99.90
44990;DHT22;30723;51.206;3.326;2022-09-09T00:33:53;15.80;99.90
44990;DHT22;30723;51.206;3.326;2022-09-09T00:36:24;15.80;99.90
44990;DHT22;30723;51.206;3.326;2022-09-09T00:38:56;15.80;99.90
44990;DHT22;30723;51.206;3.326;2022-09-09T00:44:32;15.80;99.90
44990;DHT22;30723;51.206;3.326;2022-09-09T00:50:05;15.70;99.90
44990;DHT22;30723;51.206;3.326;2022-09-09T00:52:51;15.80;99.90
44990;DHT22;30723;51.206;3.326;2022-09-09T00:55:39;15.80;99.90
44990;DHT22;30723;51.206;3.326;2022-09-09T00:58:08;15.70;99.90
44990;DHT22;30723;51.206;3.326;2022-09-09T01:00:51;15.70;99.90
44990;DHT22;30723;51.206;3.326;2022-09-09T01:06:23;15.70;99.90
44990;DHT22;30723;51.206;3.326;2022-09-09T01:15:14;15.60;99.90
44990;DHT22;30723;51.206;3.326;2022-09-09T01:18:00;15.50;99.90
44990;DHT22;30723;51.206;3.326;2022-09-09T01:21:02;15.50;99.90
44990;DHT22;30723;51.206;3.326;2022-09-09T01:28:52;15.50;99.90
44990;DHT22;30723;51.206;3.326;2022-09-09T01:31:22;15.50;99.90
44990;DHT22;30723;51.206;3.326;2022-09-09T01:33:49;15.50;99.90
44990;DHT22;30723;51.206;3.326;2022-09-09T01:36:26;15.40;99.90
44990;DHT22;30723;51.206;3.326;2022-09-09T01:38:53;15.50;99.90
44990;DHT22;30723;51.206;3.326;2022-09-09T01:41:19;15.50;99.90
44990;DHT22;30723;51.206;3.326;2022-09-09T01:43:46;15.50;99.90
44990;DHT22;30723;51.206;3.326;2022-09-09T01:46:12;15.50;99.90
44990;DHT22;30723;51.206;3.326;2022-09-09T01:48:39;15.50;99.90
44990;DHT22;30723;51.206;3.326;2022-09-09T01:51:08;15.50;99.90
44990;DHT22;30723;51.206;3.326;2022-09-09T01:53:34;15.50;99.90
44990;DHT22;30723;51.206;3.326;2022-09-09T01:59:11;15.50;99.90
44990;DHT22;30723;51.206;3.326;2022-09-09T02:02:03;15.50;99.90
44990;DHT22;30723;51.206;3.326;2022-09-09T02:04:50;15.50;99.90
44990;DHT22;30723;51.206;3.326;2022-09-09T02:07:43;15.40;99.90
44990;DHT22;30723;51.206;3.326;2022-09-09T02:10:19;15.50;99.90
44990;DHT22;30723;51.206;3.326;2022-09-09T02:12:57;15.40;99.90
44990;DHT22;30723;51.206;3.326;2022-09-09T02:18:17;15.50;99.90
44990;DHT22;30723;51.206;3.326;2022-09-09T02:20:48;15.50;99.90
44990;DHT22;30723;51.206;3.326;2022-09-09T02:23:15;15.50;99.90
44990;DHT22;30723;51.206;3.326;2022-09-09T02:25:41;15.60;99.90
44990;DHT22;30723;51.206;3.326;2022-09-09T02:28:10;15.60;99.90
44990;DHT22;30723;51.206;3.326;2022-09-09T02:30:39;15.60;99.90
44990;DHT22;30723;51.206;3.326;2022-09-09T02:33:07;15.70;99.90
44990;DHT22;30723;51.206;3.326;2022-09-09T02:35:36;15.70;99.90
44990;DHT22;30723;51.206;3.326;2022-09-09T02:38:08;15.70;99.90
44990;DHT22;30723;51.206;3.326;2022-09-09T02:40:34;15.70;99.90
44990;DHT22;30723;51.206;3.326;2022-09-09T02:43:00;15.70;99.90
44990;DHT22;30723;51.206;3.326;2022-09-09T02:45:36;15.70;99.90
44990;DHT22;30723;51.206;3.326;2022-09-09T02:51:10;15.80;99.90
44990;DHT22;30723;51.206;3.326;2022-09-09T02:54:45;15.80;99.90
44990;DHT22;30723;51.206;3.326;2022-09-09T02:56:51;15.80;99.90
44990;DHT22;30723;51.206;3.326;2022-09-09T02:59:20;15.90;99.90
44990;DHT22;30723;51.206;3.326;2022-09-09T03:01:46;15.90;99.90
44990;DHT22;30723;51.206;3.326;2022-09-09T03:04:12;15.90;99.90
44990;DHT22;30723;51.206;3.326;2022-09-09T03:06:38;16.00;99.90
44990;DHT22;30723;51.206;3.326;2022-09-09T03:09:04;16.00;99.90
44990;DHT22;30723;51.206;3.326;2022-09-09T03:11:30;16.00;99.90
44990;DHT22;30723;51.206;3.326;2022-09-09T03:13:56;15.90;99.90
44990;DHT22;30723;51.206;3.326;2022-09-09T03:16:22;16.00;99.90
44990;DHT22;30723;51.206;3.326;2022-09-09T03:18:48;15.90;99.90
44990;DHT22;30723;51.206;3.326;2022-09-09T03:21:15;15.90;99.90
44990;DHT22;30723;51.206;3.326;2022-09-09T03:23:41;15.80;99.90
44990;DHT22;30723;51.206;3.326;2022-09-09T03:26:07;15.80;99.90
44990;DHT22;30723;51.206;3.326;2022-09-09T03:28:33;15.80;99.90
44990;DHT22;30723;51.206;3.326;2022-09-09T03:31:04;15.80;99.90
44990;DHT22;30723;51.206;3.326;2022-09-09T03:33:30;15.80;99.90
44990;DHT22;30723;51.206;3.326;2022-09-09T03:35:57;15.90;99.90
44990;DHT22;30723;51.206;3.326;2022-09-09T03:38:24;15.90;99.90
44990;DHT22;30723;51.206;3.326;2022-09-09T03:40:55;16.00;99.90
44990;DHT22;30723;51.206;3.326;2022-09-09T03:43:25;16.00;99.90
44990;DHT22;30723;51.206;3.326;2022-09-09T03:45:51;15.90;99.90
44990;DHT22;30723;51.206;3.326;2022-09-09T03:48:18;15.90;99.90
44990;DHT22;30723;51.206;3.326;2022-09-09T03:50:46;15.90;99.90
44990;DHT22;30723;51.206;3.326;2022-09-09T03:53:12;15.90;99.90
44990;DHT22;30723;51.206;3.326;2022-09-09T03:55:39;15.90;99.90
44990;DHT22;30723;51.206;3.326;2022-09-09T03:58:06;15.80;99.90
44990;DHT22;30723;51.206;3.326;2022-09-09T04:00:33;15.80;99.90
44990;DHT22;30723;51.206;3.326;2022-09-09T04:02:59;15.80;99.90
44990;DHT22;30723;51.206;3.326;2022-09-09T04:05:24;15.80;99.90
44990;DHT22;30723;51.206;3.326;2022-09-09T04:07:50;15.70;99.90
44990;DHT22;30723;51.206;3.326;2022-09-09T04:10:16;15.60;99.90
44990;DHT22;30723;51.206;3.326;2022-09-09T04:12:42;15.70;99.90
44990;DHT22;30723;51.206;3.326;2022-09-09T04:15:08;15.70;99.90
44990;DHT22;30723;51.206;3.326;2022-09-09T04:17:35;15.60;99.90
44990;DHT22;30723;51.206;3.326;2022-09-09T04:20:02;15.60;99.90
44990;DHT22;30723;51.206;3.326;2022-09-09T04:22:28;15.60;99.90
44990;DHT22;30723;51.206;3.326;2022-09-09T04:24:54;15.60;99.90
44990;DHT22;30723;51.206;3.326;2022-09-09T04:27:19;15.50;99.90
44990;DHT22;30723;51.206;3.326;2022-09-09T04:29:45;15.50;99.90
44990;DHT22;30723;51.206;3.326;2022-09-09T04:32:11;15.50;99.90
44990;DHT22;30723;51.206;3.326;2022-09-09T04:34:37;15.50;99.90
44990;DHT22;30723;51.206;3.326;2022-09-09T04:37:02;15.50;99.90
44990;DHT22;30723;51.206;3.326;2022-09-09T04:39:28;15.50;99.90
44990;DHT22;30723;51.206;3.326;2022-09-09T04:41:54;15.50;99.90
44990;DHT22;30723;51.206;3.326;2022-09-09T04:44:20;15.50;99.90
44990;DHT22;30723;51.206;3.326;2022-09-09T04:46:46;15.50;99.90
44990;DHT22;30723;51.206;3.326;2022-09-09T04:49:12;15.50;99.90
44990;DHT22;30723;51.206;3.326;2022-09-09T04:51:37;15.40;99.90
44990;DHT22;30723;51.206;3.326;2022-09-09T04:54:04;15.40;99.90
44990;DHT22;30723;51.206;3.326;2022-09-09T04:56:31;15.40;99.90
44990;DHT22;30723;51.206;3.326;2022-09-09T04:58:56;15.40;99.90
44990;DHT22;30723;51.206;3.326;2022-09-09T05:01:22;15.30;99.90
44990;DHT22;30723;51.206;3.326;2022-09-09T05:03:50;15.30;99.90
44990;DHT22;30723;51.206;3.326;2022-09-09T05:06:17;15.30;99.90
44990;DHT22;30723;51.206;3.326;2022-09-09T05:08:44;15.40;99.90
44990;DHT22;30723;51.206;3.326;2022-09-09T05:11:27;15.30;99.90
44990;DHT22;30723;51.206;3.326;2022-09-09T05:13:54;15.40;99.90
44990;DHT22;30723;51.206;3.326;2022-09-09T05:16:21;15.40;99.90
44990;DHT22;30723;51.206;3.326;2022-09-09T05:18:47;15.40;99.90
44990;DHT22;30723;51.206;3.326;2022-09-09T05:21:14;15.40;99.90
44990;DHT22;30723;51.206;3.326;2022-09-09T05:23:40;15.40;99.90
44990;DHT22;30723;51.206;3.326;2022-09-09T05:26:09;15.30;99.90
44990;DHT22;30723;51.206;3.326;2022-09-09T05:28:36;15.40;99.90
44990;DHT22;30723;51.206;3.326;2022-09-09T05:31:07;15.40;99.90
44990;DHT22;30723;51.206;3.326;2022-09-09T05:33:34;15.30;99.90
44990;DHT22;30723;51.206;3.326;2022-09-09T05:36:11;15.30;99.90
44990;DHT22;30723;51.206;3.326;2022-09-09T05:38:39;15.30;99.90
44990;DHT22;30723;51.206;3.326;2022-09-09T05:41:07;15.30;99.90
44990;DHT22;30723;51.206;3.326;2022-09-09T05:43:33;15.30;99.90
44990;DHT22;30723;51.206;3.326;2022-09-09T05:46:05;15.40;99.90
44990;DHT22;30723;51.206;3.326;2022-09-09T05:48:33;15.40;99.90
44990;DHT22;30723;51.206;3.326;2022-09-09T05:51:00;15.50;99.90
44990;DHT22;30723;51.206;3.326;2022-09-09T05:53:27;15.40;99.90
44990;DHT22;30723;51.206;3.326;2022-09-09T05:56:03;15.50;99.90
44990;DHT22;30723;51.206;3.326;2022-09-09T05:58:33;15.50;99.90
44990;DHT22;30723;51.206;3.326;2022-09-09T06:01:07;15.50;99.90
44990;DHT22;30723;51.206;3.326;2022-09-09T06:03:34;15.50;99.90
44990;DHT22;30723;51.206;3.326;2022-09-09T06:06:05;15.50;99.90
44990;DHT22;30723;51.206;3.326;2022-09-09T06:08:32;15.50;99.90
44990;DHT22;30723;51.206;3.326;2022-09-09T06:11:02;15.50;99.90
44990;DHT22;30723;51.206;3.326;2022-09-09T06:13:29;15.50;99.90
44990;DHT22;30723;51.206;3.326;2022-09-09T06:15:54;15.50;99.90
44990;DHT22;30723;51.206;3.326;2022-09-09T06:18:21;15.50;99.90
44990;DHT22;30723;51.206;3.326;2022-09-09T06:20:57;15.50;99.90
44990;DHT22;30723;51.206;3.326;2022-09-09T06:23:23;15.60;99.90
44990;DHT22;30723;51.206;3.326;2022-09-09T06:25:49;15.60;99.90
44990;DHT22;30723;51.206;3.326;2022-09-09T06:28:16;15.60;99.90
44990;DHT22;30723;51.206;3.326;2022-09-09T06:30:41;15.70;99.90
44990;DHT22;30723;51.206;3.326;2022-09-09T06:33:07;15.70;99.90
44990;DHT22;30723;51.206;3.326;2022-09-09T06:35:33;15.80;99.90
44990;DHT22;30723;51.206;3.326;2022-09-09T06:37:59;15.80;99.90
44990;DHT22;30723;51.206;3.326;2022-09-09T06:40:25;15.90;99.90
44990;DHT22;30723;51.206;3.326;2022-09-09T06:42:51;15.90;99.90
44990;DHT22;30723;51.206;3.326;2022-09-09T06:45:17;15.90;99.90
44990;DHT22;30723;51.206;3.326;2022-09-09T06:47:43;15.90;99.90
44990;DHT22;30723;51.206;3.326;2022-09-09T06:50:10;15.90;99.90
44990;DHT22;30723;51.206;3.326;2022-09-09T06:52:36;15.90;99.90
44990;DHT22;30723;51.206;3.326;2022-09-09T06:55:03;15.80;99.90
44990;DHT22;30723;51.206;3.326;2022-09-09T06:57:29;15.80;99.90
44990;DHT22;30723;51.206;3.326;2022-09-09T06:59:55;15.80;99.90
44990;DHT22;30723;51.206;3.326;2022-09-09T07:02:20;15.80;99.90
44990;DHT22;30723;51.206;3.326;2022-09-09T07:04:47;15.80;99.90
44990;DHT22;30723;51.206;3.326;2022-09-09T07:07:12;15.70;99.90
44990;DHT22;30723;51.206;3.326;2022-09-09T07:09:40;15.70;99.90
44990;DHT22;30723;51.206;3.326;2022-09-09T07:12:06;15.70;99.90
44990;DHT22;30723;51.206;3.326;2022-09-09T07:14:32;15.70;99.90
44990;DHT22;30723;51.206;3.326;2022-09-09T07:16:59;15.70;99.90
44990;DHT22;30723;51.206;3.326;2022-09-09T07:19:25;15.70;99.90
44990;DHT22;30723;51.206;3.326;2022-09-09T07:21:51;15.70;99.90
44990;DHT22;30723;51.206;3.326;2022-09-09T07:24:17;15.70;99.90
44990;DHT22;30723;51.206;3.326;2022-09-09T07:26:43;15.70;99.90
44990;DHT22;30723;51.206;3.326;2022-09-09T07:29:09;15.70;99.90
44990;DHT22;30723;51.206;3.326;2022-09-09T07:31:38;15.70;99.90
44990;DHT22;30723;51.206;3.326;2022-09-09T07:34:05;15.70;99.90
44990;DHT22;30723;51.206;3.326;2022-09-09T07:36:39;15.70;99.90
44990;DHT22;30723;51.206;3.326;2022-09-09T07:39:07;15.80;99.90
44990;DHT22;30723;51.206;3.326;2022-09-09T07:41:36;15.80;99.90
44990;DHT22;30723;51.206;3.326;2022-09-09T07:44:08;15.80;99.90
44990;DHT22;30723;51.206;3.326;2022-09-09T07:46:35;15.90;99.90
44990;DHT22;30723;51.206;3.326;2022-09-09T07:49:01;15.90;99.90
44990;DHT22;30723;51.206;3.326;2022-09-09T07:51:35;15.90;99.90
44990;DHT22;30723;51.206;3.326;2022-09-09T07:54:04;15.80;99.90
44990;DHT22;30723;51.206;3.326;2022-09-09T07:56:31;15.80;99.90
44990;DHT22;30723;51.206;3.326;2022-09-09T07:58:57;15.80;99.90
44990;DHT22;30723;51.206;3.326;2022-09-09T08:01:30;15.80;99.90
44990;DHT22;30723;51.206;3.326;2022-09-09T08:04:01;15.90;99.90
44990;DHT22;30723;51.206;3.326;2022-09-09T08:06:29;15.90;99.90
44990;DHT22;30723;51.206;3.326;2022-09-09T08:08:55;16.00;99.90
44990;DHT22;30723;51.206;3.326;2022-09-09T08:11:23;16.00;99.90
44990;DHT22;30723;51.206;3.326;2022-09-09T08:13:50;16.00;99.90
44990;DHT22;30723;51.206;3.326;2022-09-09T08:16:22;16.00;99.90
44990;DHT22;30723;51.206;3.326;2022-09-09T08:18:51;16.20;99.90
44990;DHT22;30723;51.206;3.326;2022-09-09T08:21:28;16.30;99.90
44990;DHT22;30723;51.206;3.326;2022-09-09T08:23:56;16.30;99.90
44990;DHT22;30723;51.206;3.326;2022-09-09T08:26:24;16.40;99.90
44990;DHT22;30723;51.206;3.326;2022-09-09T08:28:51;16.40;99.90
44990;DHT22;30723;51.206;3.326;2022-09-09T08:31:24;16.50;99.90
44990;DHT22;30723;51.206;3.326;2022-09-09T08:33:50;16.60;99.90
44990;DHT22;30723;51.206;3.326;2022-09-09T08:36:21;16.70;99.90
44990;DHT22;30723;51.206;3.326;2022-09-09T08:38:53;16.70;99.90
44990;DHT22;30723;51.206;3.326;2022-09-09T08:52:29;17.20;99.90
44990;DHT22;30723;51.206;3.326;2022-09-09T08:55:26;17.40;99.90
44990;DHT22;30723;51.206;3.326;2022-09-09T08:57:56;17.60;99.90
44990;DHT22;30723;51.206;3.326;2022-09-09T09:00:30;17.60;99.90
44990;DHT22;30723;51.206;3.326;2022-09-09T09:03:23;17.70;99.90
44990;DHT22;30723;51.206;3.326;2022-09-09T09:11:22;18.20;99.90
44990;DHT22;30723;51.206;3.326;2022-09-09T09:14:09;18.60;99.90
44990;DHT22;30723;51.206;3.326;2022-09-09T09:19:30;19.70;99.90
44990;DHT22;30723;51.206;3.326;2022-09-09T09:24:31;19.50;99.90
44990;DHT22;30723;51.206;3.326;2022-09-09T09:27:13;19.20;99.90
44990;DHT22;30723;51.206;3.326;2022-09-09T09:29:40;18.80;99.90
44990;DHT22;30723;51.206;3.326;2022-09-09T09:32:11;18.50;99.90
44990;DHT22;30723;51.206;3.326;2022-09-09T09:34:39;18.30;99.90
44990;DHT22;30723;51.206;3.326;2022-09-09T09:37:30;18.30;99.90
44990;DHT22;30723;51.206;3.326;2022-09-09T09:40:08;19.10;99.90
44990;DHT22;30723;51.206;3.326;2022-09-09T09:42:34;20.00;99.90
44990;DHT22;30723;51.206;3.326;2022-09-09T09:48:09;20.30;99.90
44990;DHT22;30723;51.206;3.326;2022-09-09T09:50:35;20.00;99.90
44990;DHT22;30723;51.206;3.326;2022-09-09T09:53:24;20.10;99.90
44990;DHT22;30723;51.206;3.326;2022-09-09T09:56:02;20.50;99.90
44990;DHT22;30723;51.206;3.326;2022-09-09T09:58:50;20.70;99.90
44990;DHT22;30723;51.206;3.326;2022-09-09T10:01:31;20.60;99.90
44990;DHT22;30723;51.206;3.326;2022-09-09T10:04:19;20.20;99.90
44990;DHT22;30723;51.206;3.326;2022-09-09T10:06:46;19.80;99.90
44990;DHT22;30723;51.206;3.326;2022-09-09T10:09:29;19.50;99.90
44990;DHT22;30723;51.206;3.326;2022-09-09T10:12:33;19.50;99.90
44990;DHT22;30723;51.206;3.326;2022-09-09T10:23:42;20.80;99.90
44990;DHT22;30723;51.206;3.326;2022-09-09T10:40:26;18.50;99.90
44990;DHT22;30723;51.206;3.326;2022-09-09T10:42:54;18.20;99.90
44990;DHT22;30723;51.206;3.326;2022-09-09T10:45:36;18.10;99.90
44990;DHT22;30723;51.206;3.326;2022-09-09T10:55:44;17.50;99.90
44990;DHT22;30723;51.206;3.326;2022-09-09T10:58:16;17.40;99.90
44990;DHT22;30723;51.206;3.326;2022-09-09T11:00:50;17.30;99.90
44990;DHT22;30723;51.206;3.326;2022-09-09T11:03:26;17.30;99.90
44990;DHT22;30723;51.206;3.326;2022-09-09T11:06:04;17.30;99.90
44990;DHT22;30723;51.206;3.326;2022-09-09T11:08:32;17.30;99.90
44990;DHT22;30723;51.206;3.326;2022-09-09T11:11:17;17.30;99.90
44990;DHT22;30723;51.206;3.326;2022-09-09T11:16:24;17.30;99.90
44990;DHT22;30723;51.206;3.326;2022-09-09T11:19:03;17.20;99.90
44990;DHT22;30723;51.206;3.326;2022-09-09T11:21:37;17.20;99.90
44990;DHT22;30723;51.206;3.326;2022-09-09T11:24:18;17.20;99.90
44990;DHT22;30723;51.206;3.326;2022-09-09T11:26:54;17.30;99.90
44990;DHT22;30723;51.206;3.326;2022-09-09T11:38:08;17.20;99.90
44990;DHT22;30723;51.206;3.326;2022-09-09T11:40:37;17.10;99.90
44990;DHT22;30723;51.206;3.326;2022-09-09T11:43:09;17.10;99.90
44990;DHT22;30723;51.206;3.326;2022-09-09T11:45:39;17.10;99.90
44990;DHT22;30723;51.206;3.326;2022-09-09T11:48:38;17.00;99.90
44990;DHT22;30723;51.206;3.326;2022-09-09T11:51:26;17.00;99.90
44990;DHT22;30723;51.206;3.326;2022-09-09T11:56:42;17.20;99.90
44990;DHT22;30723;51.206;3.326;2022-09-09T11:59:30;17.10;99.90
44990;DHT22;30723;51.206;3.326;2022-09-09T12:02:00;17.00;99.90
44990;DHT22;30723;51.206;3.326;2022-09-09T12:04:30;17.00;99.90
44990;DHT22;30723;51.206;3.326;2022-09-09T12:07:01;17.00;99.90
44990;DHT22;30723;51.206;3.326;2022-09-09T12:09:43;17.00;99.90
44990;DHT22;30723;51.206;3.326;2022-09-09T12:14:55;18.00;99.90
44990;DHT22;30723;51.206;3.326;2022-09-09T12:17:23;19.60;99.90
44990;DHT22;30723;51.206;3.326;2022-09-09T12:20:11;20.60;99.90
44990;DHT22;30723;51.206;3.326;2022-09-09T12:28:18;20.20;99.90
44990;DHT22;30723;51.206;3.326;2022-09-09T12:33:38;23.30;99.90
44990;DHT22;30723;51.206;3.326;2022-09-09T12:36:17;24.40;99.90
44990;DHT22;30723;51.206;3.326;2022-09-09T12:38:45;25.00;99.90
44990;DHT22;30723;51.206;3.326;2022-09-09T12:41:25;24.30;99.90
44990;DHT22;30723;51.206;3.326;2022-09-09T12:44:04;23.30;99.90
44990;DHT22;30723;51.206;3.326;2022-09-09T12:46:42;22.90;99.90
44990;DHT22;30723;51.206;3.326;2022-09-09T12:49:47;23.20;99.90
44990;DHT22;30723;51.206;3.326;2022-09-09T12:54:45;21.80;99.90
44990;DHT22;30723;51.206;3.326;2022-09-09T12:57:17;21.00;99.90
44990;DHT22;30723;51.206;3.326;2022-09-09T12:59:43;20.10;99.90
44990;DHT22;30723;51.206;3.326;2022-09-09T13:02:22;19.80;99.90
44990;DHT22;30723;51.206;3.326;2022-09-09T13:04:49;19.70;99.90
44990;DHT22;30723;51.206;3.326;2022-09-09T13:07:16;19.50;99.90
44990;DHT22;30723;51.206;3.326;2022-09-09T13:09:44;19.50;99.90
44990;DHT22;30723;51.206;3.326;2022-09-09T13:12:21;19.40;99.90
44990;DHT22;30723;51.206;3.326;2022-09-09T13:14:50;19.40;99.90
44990;DHT22;30723;51.206;3.326;2022-09-09T13:17:22;19.70;99.90
44990;DHT22;30723;51.206;3.326;2022-09-09T13:19:50;20.70;99.90
44990;DHT22;30723;51.206;3.326;2022-09-09T13:22:37;22.80;99.90
44990;DHT22;30723;51.206;3.326;2022-09-09T13:27:39;23.20;99.90
44990;DHT22;30723;51.206;3.326;2022-09-09T13:30:23;23.40;99.90
44990;DHT22;30723;51.206;3.326;2022-09-09T13:33:17;22.90;99.90
44990;DHT22;30723;51.206;3.326;2022-09-09T13:35:58;22.80;99.90
44990;DHT22;30723;51.206;3.326;2022-09-09T13:38:24;23.10;99.90
44990;DHT22;30723;51.206;3.326;2022-09-09T13:40:58;24.80;99.90
44990;DHT22;30723;51.206;3.326;2022-09-09T13:43:27;25.70;99.90
44990;DHT22;30723;51.206;3.326;2022-09-09T13:45:59;25.10;99.90
44990;DHT22;30723;51.206;3.326;2022-09-09T13:48:27;24.00;99.90
44990;DHT22;30723;51.206;3.326;2022-09-09T13:54:01;22.00;99.90
44990;DHT22;30723;51.206;3.326;2022-09-09T13:56:27;21.00;99.90
44990;DHT22;30723;51.206;3.326;2022-09-09T13:58:53;20.60;99.90
44990;DHT22;30723;51.206;3.326;2022-09-09T14:01:19;20.30;99.90
44990;DHT22;30723;51.206;3.326;2022-09-09T14:03:44;20.00;99.90
44990;DHT22;30723;51.206;3.326;2022-09-09T14:06:11;19.70;99.90
44990;DHT22;30723;51.206;3.326;2022-09-09T14:08:37;19.40;99.90
44990;DHT22;30723;51.206;3.326;2022-09-09T14:11:03;19.20;99.90
44990;DHT22;30723;51.206;3.326;2022-09-09T14:13:29;19.20;99.90
44990;DHT22;30723;51.206;3.326;2022-09-09T14:15:55;19.10;99.90
44990;DHT22;30723;51.206;3.326;2022-09-09T14:18:21;19.30;99.90
44990;DHT22;30723;51.206;3.326;2022-09-09T14:20:48;19.50;99.90
44990;DHT22;30723;51.206;3.326;2022-09-09T14:23:16;19.60;99.90
44990;DHT22;30723;51.206;3.326;2022-09-09T14:25:44;19.60;99.90
44990;DHT22;30723;51.206;3.326;2022-09-09T14:28:12;19.60;99.90
44990;DHT22;30723;51.206;3.326;2022-09-09T14:30:39;19.60;99.90
44990;DHT22;30723;51.206;3.326;2022-09-09T14:33:07;19.40;99.90
44990;DHT22;30723;51.206;3.326;2022-09-09T14:35:32;19.40;99.90
44990;DHT22;30723;51.206;3.326;2022-09-09T14:37:59;20.00;99.90
44990;DHT22;30723;51.206;3.326;2022-09-09T14:40:26;20.70;99.90
44990;DHT22;30723;51.206;3.326;2022-09-09T14:42:53;20.90;99.90
44990;DHT22;30723;51.206;3.326;2022-09-09T14:45:19;21.10;99.90
44990;DHT22;30723;51.206;3.326;2022-09-09T14:47:46;21.10;99.90
44990;DHT22;30723;51.206;3.326;2022-09-09T14:50:12;20.90;99.90
44990;DHT22;30723;51.206;3.326;2022-09-09T14:52:39;21.20;99.90
44990;DHT22;30723;51.206;3.326;2022-09-09T14:55:05;21.50;99.90
44990;DHT22;30723;51.206;3.326;2022-09-09T14:57:31;21.20;99.90
44990;DHT22;30723;51.206;3.326;2022-09-09T14:59:57;20.70;99.90
44990;DHT22;30723;51.206;3.326;2022-09-09T15:02:23;20.50;99.90
44990;DHT22;30723;51.206;3.326;2022-09-09T15:04:48;20.50;99.90
44990;DHT22;30723;51.206;3.326;2022-09-09T15:07:18;20.60;99.90
44990;DHT22;30723;51.206;3.326;2022-09-09T15:09:45;20.60;99.90
44990;DHT22;30723;51.206;3.326;2022-09-09T15:12:13;21.00;99.90
44990;DHT22;30723;51.206;3.326;2022-09-09T15:14:39;21.50;99.90
44990;DHT22;30723;51.206;3.326;2022-09-09T15:17:05;21.70;99.90
44990;DHT22;30723;51.206;3.326;2022-09-09T15:19:30;21.40;99.90
44990;DHT22;30723;51.206;3.326;2022-09-09T15:21:57;21.20;99.90
44990;DHT22;30723;51.206;3.326;2022-09-09T15:24:25;20.80;99.90
44990;DHT22;30723;51.206;3.326;2022-09-09T15:26:52;20.50;99.90
44990;DHT22;30723;51.206;3.326;2022-09-09T15:29:19;20.30;99.90
44990;DHT22;30723;51.206;3.326;2022-09-09T15:31:45;20.40;99.90
44990;DHT22;30723;51.206;3.326;2022-09-09T15:34:11;20.20;99.90
44990;DHT22;30723;51.206;3.326;2022-09-09T15:36:38;20.10;99.90
44990;DHT22;30723;51.206;3.326;2022-09-09T15:39:07;20.00;99.90
44990;DHT22;30723;51.206;3.326;2022-09-09T15:41:34;19.80;99.90
44990;DHT22;30723;51.206;3.326;2022-09-09T15:44:00;19.70;99.90
44990;DHT22;30723;51.206;3.326;2022-09-09T15:49:08;19.70;99.90
44990;DHT22;30723;51.206;3.326;2022-09-09T15:51:35;19.70;99.90
44990;DHT22;30723;51.206;3.326;2022-09-09T15:54:02;19.90;99.90
44990;DHT22;30723;51.206;3.326;2022-09-09T15:56:30;20.50;99.90
44990;DHT22;30723;51.206;3.326;2022-09-09T15:58:57;20.70;99.90
44990;DHT22;30723;51.206;3.326;2022-09-09T16:01:23;20.60;99.90
44990;DHT22;30723;51.206;3.326;2022-09-09T16:03:49;20.50;99.90
44990;DHT22;30723;51.206;3.326;2022-09-09T16:06:21;20.60;99.90
44990;DHT22;30723;51.206;3.326;2022-09-09T16:08:47;21.10;99.90
44990;DHT22;30723;51.206;3.326;2022-09-09T16:11:21;21.70;99.90
44990;DHT22;30723;51.206;3.326;2022-09-09T16:13:49;21.80;99.90
44990;DHT22;30723;51.206;3.326;2022-09-09T16:16:16;21.70;99.90
44990;DHT22;30723;51.206;3.326;2022-09-09T16:18:47;21.60;99.90
44990;DHT22;30723;51.206;3.326;2022-09-09T16:21:35;21.60;99.90
44990;DHT22;30723;51.206;3.326;2022-09-09T16:24:04;21.50;99.90
44990;DHT22;30723;51.206;3.326;2022-09-09T16:26:32;21.20;99.90
44990;DHT22;30723;51.206;3.326;2022-09-09T16:28:58;21.00;99.90
44990;DHT22;30723;51.206;3.326;2022-09-09T16:31:25;20.80;99.90
44990;DHT22;30723;51.206;3.326;2022-09-09T16:33:52;20.60;99.90
44990;DHT22;30723;51.206;3.326;2022-09-09T16:36:20;20.60;99.90
44990;DHT22;30723;51.206;3.326;2022-09-09T16:38:46;20.70;99.90
44990;DHT22;30723;51.206;3.326;2022-09-09T16:41:13;20.70;99.90
44990;DHT22;30723;51.206;3.326;2022-09-09T16:43:41;20.60;99.90
44990;DHT22;30723;51.206;3.326;2022-09-09T16:46:13;20.50;99.90
44990;DHT22;30723;51.206;3.326;2022-09-09T16:48:41;20.40;99.90
44990;DHT22;30723;51.206;3.326;2022-09-09T16:51:18;20.20;99.90
44990;DHT22;30723;51.206;3.326;2022-09-09T16:53:44;20.20;99.90
44990;DHT22;30723;51.206;3.326;2022-09-09T16:56:15;20.10;99.90
44990;DHT22;30723;51.206;3.326;2022-09-09T16:58:42;20.20;99.90
44990;DHT22;30723;51.206;3.326;2022-09-09T17:01:11;20.20;99.90
44990;DHT22;30723;51.206;3.326;2022-09-09T17:03:39;20.30;99.90
44990;DHT22;30723;51.206;3.326;2022-09-09T17:06:12;20.30;99.90
44990;DHT22;30723;51.206;3.326;2022-09-09T17:08:39;20.20;99.90
44990;DHT22;30723;51.206;3.326;2022-09-09T17:11:17;20.20;99.90
44990;DHT22;30723;51.206;3.326;2022-09-09T17:13:44;20.10;99.90
44990;DHT22;30723;51.206;3.326;2022-09-09T17:16:11;19.90;99.90
44990;DHT22;30723;51.206;3.326;2022-09-09T17:18:38;19.40;99.90
44990;DHT22;30723;51.206;3.326;2022-09-09T17:21:18;19.00;99.90
44990;DHT22;30723;51.206;3.326;2022-09-09T17:23:45;18.80;99.90
44990;DHT22;30723;51.206;3.326;2022-09-09T17:26:13;18.60;99.90
44990;DHT22;30723;51.206;3.326;2022-09-09T17:28:40;18.60;99.90
44990;DHT22;30723;51.206;3.326;2022-09-09T17:31:08;18.50;99.90
44990;DHT22;30723;51.206;3.326;2022-09-09T17:33:36;18.40;99.90
44990;DHT22;30723;51.206;3.326;2022-09-09T17:36:07;18.30;99.90
44990;DHT22;30723;51.206;3.326;2022-09-09T17:38:33;18.40;99.90
44990;DHT22;30723;51.206;3.326;2022-09-09T17:41:17;18.30;99.90
44990;DHT22;30723;51.206;3.326;2022-09-09T17:43:44;18.30;99.90
44990;DHT22;30723;51.206;3.326;2022-09-09T17:48:41;18.20;99.90
44990;DHT22;30723;51.206;3.326;2022-09-09T17:51:08;18.20;99.90
44990;DHT22;30723;51.206;3.326;2022-09-09T17:53:38;18.10;99.90
44990;DHT22;30723;51.206;3.326;2022-09-09T17:56:06;18.10;99.90
44990;DHT22;30723;51.206;3.326;2022-09-09T17:58:33;18.00;99.90
44990;DHT22;30723;51.206;3.326;2022-09-09T18:01:07;18.00;99.90
44990;DHT22;30723;51.206;3.326;2022-09-09T18:03:37;17.90;99.90
44990;DHT22;30723;51.206;3.326;2022-09-09T18:06:07;17.90;99.90
44990;DHT22;30723;51.206;3.326;2022-09-09T18:08:34;18.00;99.90
44990;DHT22;30723;51.206;3.326;2022-09-09T18:11:01;17.90;99.90